createdAt,value
2023-11-20T00:00:55.966Z,2.20
2023-11-20T00:03:40.229Z,2.22
2023-11-20T00:06:08.612Z,2.24
2023-11-20T00:08:36.438Z,2.30
2023-11-20T00:11:05.351Z,2.30
2023-11-20T00:13:33.102Z,2.30
2023-11-20T00:16:00.862Z,2.30
2023-11-20T00:18:29.654Z,2.30
2023-11-20T00:20:57.393Z,2.30
2023-11-20T00:23:25.217Z,2.30
2023-11-20T00:25:52.944Z,2.30
2023-11-20T00:28:20.664Z,2.30
2023-11-20T00:30:48.543Z,2.30
2023-11-20T00:33:16.297Z,2.30
2023-11-20T00:35:44.029Z,2.30
2023-11-20T00:38:11.822Z,2.30
2023-11-20T00:40:41.188Z,2.30
2023-11-20T00:43:08.967Z,2.30
2023-11-20T00:45:36.992Z,2.30
2023-11-20T00:48:05.648Z,2.32
2023-11-20T00:50:34.273Z,2.40
2023-11-20T00:53:02.023Z,2.30
2023-11-20T00:55:29.805Z,2.40
2023-11-20T00:57:57.569Z,2.40
2023-11-20T01:00:26.133Z,2.40
2023-11-20T01:02:53.993Z,2.40
2023-11-20T01:05:23.410Z,2.30
2023-11-20T01:07:51.510Z,2.30
2023-11-20T01:10:19.325Z,2.30
2023-11-20T01:12:47.249Z,2.30
2023-11-20T01:15:15.055Z,2.34
2023-11-20T01:17:43.086Z,2.40
2023-11-20T01:20:14.710Z,2.40
2023-11-20T01:22:43.249Z,2.40
2023-11-20T01:25:11.660Z,2.44
2023-11-20T01:27:39.640Z,2.50
2023-11-20T01:30:10.593Z,2.50
2023-11-20T01:32:38.439Z,2.40
2023-11-20T01:35:06.404Z,2.46
2023-11-20T01:37:34.704Z,2.50
2023-11-20T01:40:05.646Z,2.50
2023-11-20T01:42:35.439Z,2.50
2023-11-20T01:45:03.311Z,2.48
2023-11-20T01:47:31.074Z,2.46
2023-11-20T01:49:58.895Z,2.40
2023-11-20T01:52:26.675Z,2.40
2023-11-20T01:54:55.152Z,2.40
2023-11-20T01:57:22.941Z,2.40
2023-11-20T01:59:51.063Z,2.40
2023-11-20T02:02:18.940Z,2.44
2023-11-20T02:04:48.466Z,2.46
2023-11-20T02:07:16.357Z,2.48
2023-11-20T02:09:44.330Z,2.50
2023-11-20T02:12:12.060Z,2.50
2023-11-20T02:14:39.852Z,2.50
2023-11-20T02:17:07.597Z,2.50
2023-11-20T02:19:35.334Z,2.50
2023-11-20T02:22:03.099Z,2.56
2023-11-20T02:24:30.879Z,2.58
2023-11-20T02:27:36.561Z,2.60
2023-11-20T02:30:05.574Z,2.60
2023-11-20T02:32:33.527Z,2.60
2023-11-20T02:35:02.432Z,2.60
2023-11-20T02:37:30.661Z,2.60
2023-11-20T02:39:58.652Z,2.60
2023-11-20T02:42:26.485Z,2.62
2023-11-20T02:44:54.206Z,2.66
2023-11-20T02:47:23.620Z,2.62
2023-11-20T02:49:51.609Z,2.60
2023-11-20T02:52:19.509Z,2.70
2023-11-20T02:54:47.225Z,2.70
2023-11-20T02:57:15.004Z,2.70
2023-11-20T02:59:42.711Z,2.70
2023-11-20T03:02:14.105Z,2.70
2023-11-20T03:04:45.092Z,2.70
2023-11-20T03:07:13.114Z,2.70
2023-11-20T03:09:40.903Z,2.70
2023-11-20T03:12:08.923Z,2.70
2023-11-20T03:14:36.715Z,2.70
2023-11-20T03:17:06.244Z,2.70
2023-11-20T03:19:34.163Z,2.70
2023-11-20T03:22:01.971Z,2.70
2023-11-20T03:24:29.773Z,2.70
2023-11-20T03:26:58.196Z,2.70
2023-11-20T03:29:26.906Z,2.70
2023-11-20T03:31:54.687Z,2.70
2023-11-20T03:34:22.569Z,2.70
2023-11-20T03:36:50.397Z,2.70
2023-11-20T03:39:18.117Z,2.76
2023-11-20T03:41:47.002Z,2.80
2023-11-20T03:44:14.954Z,2.74
2023-11-20T03:46:43.796Z,2.70
2023-11-20T03:49:11.553Z,2.70
2023-11-20T03:51:39.287Z,2.66
2023-11-20T03:54:08.986Z,2.60
2023-11-20T03:56:36.729Z,2.60
2023-11-20T03:59:04.447Z,2.60
2023-11-20T04:01:32.175Z,2.60
2023-11-20T04:03:59.898Z,2.60
2023-11-20T04:06:27.698Z,2.60
2023-11-20T04:08:55.368Z,2.60
2023-11-20T04:11:23.082Z,2.60
2023-11-20T04:13:50.801Z,2.60
2023-11-20T04:16:19.766Z,2.52
2023-11-20T04:18:47.697Z,2.50
2023-11-20T04:21:16.788Z,2.60
2023-11-20T04:23:44.938Z,2.58
2023-11-20T04:26:12.697Z,2.60
2023-11-20T04:28:40.407Z,2.60
2023-11-20T04:31:08.149Z,2.60
2023-11-20T04:33:35.918Z,2.60
2023-11-20T04:36:04.100Z,2.60
2023-11-20T04:38:31.916Z,2.60
2023-11-20T04:41:00.381Z,2.60
2023-11-20T04:43:28.112Z,2.60
2023-11-20T04:45:55.788Z,2.60
2023-11-20T04:48:23.499Z,2.60
2023-11-20T04:50:51.281Z,2.60
2023-11-20T04:53:19.732Z,2.60
2023-11-20T04:55:47.568Z,2.62
2023-11-20T04:58:15.458Z,2.70
2023-11-20T05:00:43.339Z,2.70
2023-11-20T05:03:11.242Z,2.70
2023-11-20T05:05:39.354Z,2.70
2023-11-20T05:08:07.124Z,2.70
2023-11-20T05:10:34.887Z,2.70
2023-11-20T05:13:03.464Z,2.70
2023-11-20T05:15:31.226Z,2.70
2023-11-20T05:17:58.911Z,2.70
2023-11-20T05:20:27.464Z,2.70
2023-11-20T05:22:55.163Z,2.70
2023-11-20T05:25:22.820Z,2.70
2023-11-20T05:27:50.553Z,2.70
2023-11-20T05:30:18.358Z,2.70
2023-11-20T05:32:46.103Z,2.70
2023-11-20T05:35:14.394Z,2.70
2023-11-20T05:37:42.186Z,2.70
2023-11-20T05:40:10.694Z,2.70
2023-11-20T05:42:38.568Z,2.70
2023-11-20T05:45:07.173Z,2.70
2023-11-20T05:47:34.957Z,2.70
2023-11-20T05:50:02.769Z,2.70
2023-11-20T05:52:31.053Z,2.70
2023-11-20T05:54:58.807Z,2.70
2023-11-20T05:57:26.524Z,2.70
2023-11-20T05:59:54.199Z,2.68
2023-11-20T06:02:21.894Z,2.60
2023-11-20T06:04:49.663Z,2.60
2023-11-20T06:07:17.484Z,2.60
2023-11-20T06:09:45.302Z,2.60
2023-11-20T06:12:13.074Z,2.60
2023-11-20T06:14:42.669Z,2.60
2023-11-20T06:17:10.368Z,2.60
2023-11-20T06:19:38.097Z,2.60
2023-11-20T06:22:05.963Z,2.60
2023-11-20T06:24:34.711Z,2.50
2023-11-20T06:27:02.414Z,2.50
2023-11-20T06:29:30.407Z,2.50
2023-11-20T06:31:58.674Z,2.46
2023-11-20T06:34:27.085Z,2.40
2023-11-20T06:36:54.834Z,2.40
2023-11-20T06:39:22.690Z,2.44
2023-11-20T06:41:51.525Z,2.50
2023-11-20T06:44:22.298Z,2.50
2023-11-20T06:46:54.181Z,2.50
2023-11-20T06:49:21.967Z,2.50
2023-11-20T06:51:49.791Z,2.50
2023-11-20T06:54:18.094Z,2.50
2023-11-20T06:56:47.234Z,2.44
2023-11-20T06:59:14.973Z,2.40
2023-11-20T07:01:46.624Z,2.40
2023-11-20T07:04:19.376Z,2.40
2023-11-20T07:06:48.529Z,2.40
2023-11-20T07:09:16.657Z,2.50
2023-11-20T07:11:44.563Z,2.50
2023-11-20T07:14:12.620Z,2.50
2023-11-20T07:16:41.745Z,2.50
2023-11-20T07:19:09.778Z,2.50
2023-11-20T07:21:38.754Z,2.50
2023-11-20T07:24:06.858Z,2.50
2023-11-20T07:26:34.581Z,2.50
2023-11-20T07:29:02.581Z,2.50
2023-11-20T07:31:32.558Z,2.50
2023-11-20T07:34:01.343Z,2.50
2023-11-20T07:36:29.171Z,2.50
2023-11-20T07:38:57.305Z,2.50
2023-11-20T07:41:26.086Z,2.50
2023-11-20T07:43:53.770Z,2.50
2023-11-20T07:46:21.591Z,2.50
2023-11-20T07:48:49.424Z,2.50
2023-11-20T07:51:17.432Z,2.50
2023-11-20T07:53:45.162Z,2.60
2023-11-20T07:56:14.485Z,2.60
2023-11-20T07:58:42.290Z,2.60
2023-11-20T08:01:10.072Z,2.70
2023-11-20T08:03:37.832Z,2.70
2023-11-20T08:06:16.759Z,2.70
2023-11-20T08:08:49.817Z,2.80
2023-11-20T08:11:19.065Z,2.80
2023-11-20T08:13:47.638Z,2.90
2023-11-20T08:16:15.477Z,2.90
2023-11-20T08:18:43.309Z,2.90
2023-11-20T08:21:11.155Z,2.98
2023-11-20T08:23:39.034Z,3.00
2023-11-20T08:26:06.859Z,3.02
2023-11-20T08:28:34.586Z,3.10
2023-11-20T08:31:02.376Z,3.10
2023-11-20T08:33:30.395Z,3.10
2023-11-20T08:35:58.581Z,3.10
2023-11-20T08:38:26.387Z,3.20
2023-11-20T08:40:54.333Z,3.20
2023-11-20T08:43:22.074Z,3.20
2023-11-20T08:45:53.300Z,3.20
2023-11-20T08:48:25.180Z,3.30
2023-11-20T08:50:52.988Z,3.28
2023-11-20T08:53:20.742Z,3.30
2023-11-20T08:55:49.234Z,3.30
2023-11-20T08:58:17.001Z,3.30
2023-11-20T09:00:44.917Z,3.34
2023-11-20T09:03:14.698Z,3.40
2023-11-20T09:05:43.114Z,3.40
2023-11-20T09:08:12.151Z,3.40
2023-11-20T09:10:39.887Z,3.40
2023-11-20T09:13:10.719Z,3.40
2023-11-20T09:15:39.142Z,3.40
2023-11-20T09:18:07.046Z,3.40
2023-11-20T09:20:35.412Z,3.40
2023-11-20T09:23:03.132Z,3.48
2023-11-20T09:25:31.171Z,3.48
2023-11-20T09:27:59.866Z,3.50
2023-11-20T09:30:27.641Z,3.50
2023-11-20T09:32:55.710Z,3.50
2023-11-20T09:35:23.499Z,3.50
2023-11-20T09:37:51.212Z,3.50
2023-11-20T09:40:19.198Z,3.52
2023-11-20T09:42:47.085Z,3.60
2023-11-20T09:45:28.557Z,3.62
2023-11-20T09:47:58.385Z,3.68
2023-11-20T09:50:30.469Z,3.70
2023-11-20T09:53:01.007Z,3.70
2023-11-20T09:55:28.987Z,3.70
2023-11-20T09:57:56.878Z,3.70
2023-11-20T10:00:25.859Z,3.70
2023-11-20T10:02:54.680Z,3.70
2023-11-20T10:05:34.016Z,3.70
2023-11-20T10:08:04.222Z,3.72
2023-11-20T10:10:35.007Z,3.80
2023-11-20T10:13:05.983Z,3.80
2023-11-20T10:15:35.152Z,3.80
2023-11-20T10:18:04.030Z,3.80
2023-11-20T10:20:46.678Z,3.84
2023-11-20T10:23:14.652Z,3.90
2023-11-20T10:25:46.862Z,3.90
2023-11-20T10:28:15.687Z,3.90
2023-11-20T10:30:47.239Z,3.90
2023-11-20T10:33:22.297Z,3.90
2023-11-20T10:35:52.213Z,3.90
2023-11-20T10:38:21.938Z,3.90
2023-11-20T10:40:50.148Z,3.82
2023-11-20T10:43:17.907Z,3.90
2023-11-20T10:45:45.915Z,3.90
2023-11-20T10:48:14.418Z,3.90
2023-11-20T10:50:44.499Z,3.90
2023-11-20T10:53:13.153Z,3.90
2023-11-20T10:55:43.522Z,3.90
2023-11-20T10:58:15.211Z,3.80
2023-11-20T11:00:43.351Z,3.80
2023-11-20T11:03:17.369Z,3.80
2023-11-20T11:05:47.898Z,3.80
2023-11-20T11:08:17.845Z,3.80
2023-11-20T11:10:45.957Z,3.80
2023-11-20T11:13:16.188Z,3.80
2023-11-20T11:15:43.933Z,3.80
2023-11-20T11:18:15.801Z,3.70
2023-11-20T11:20:48.037Z,3.70
2023-11-20T11:23:16.084Z,3.74
2023-11-20T11:26:00.988Z,3.70
2023-11-20T11:28:29.492Z,3.70
2023-11-20T11:30:58.210Z,3.70
2023-11-20T11:33:39.034Z,3.70
2023-11-20T11:36:15.893Z,3.70
2023-11-20T11:38:51.922Z,3.70
2023-11-20T11:42:04.708Z,3.66
2023-11-20T11:44:48.946Z,3.70
2023-11-20T11:47:17.012Z,3.64
2023-11-20T11:49:51.124Z,3.60
2023-11-20T11:52:37.040Z,3.50
2023-11-20T11:55:14.675Z,3.50
2023-11-20T11:57:47.240Z,3.60
2023-11-20T12:00:18.945Z,3.60
2023-11-20T12:03:02.908Z,3.58
2023-11-20T12:05:33.061Z,3.60
2023-11-20T12:08:04.256Z,3.60
2023-11-20T12:10:53.027Z,3.60
2023-11-20T12:13:21.835Z,3.70
2023-11-20T12:15:53.640Z,3.70
2023-11-20T12:18:36.106Z,3.70
2023-11-20T12:21:10.286Z,3.70
2023-11-20T12:23:39.866Z,3.70
2023-11-20T12:26:11.014Z,3.70
2023-11-20T12:28:40.003Z,3.70
2023-11-20T12:31:10.396Z,3.78
2023-11-20T12:33:43.191Z,3.80
2023-11-20T12:36:14.693Z,3.80
2023-11-20T12:38:48.692Z,3.80
2023-11-20T12:41:20.636Z,3.86
2023-11-20T12:43:49.262Z,3.90
2023-11-20T12:46:19.239Z,3.90
2023-11-20T12:48:47.965Z,3.90
2023-11-20T12:51:16.001Z,3.90
2023-11-20T12:53:44.730Z,3.98
2023-11-20T12:56:13.111Z,4.00
2023-11-20T12:58:42.347Z,4.00
2023-11-20T13:01:10.842Z,4.02
2023-11-20T13:03:38.688Z,4.00
2023-11-20T13:06:07.402Z,3.96
2023-11-20T13:08:35.952Z,3.90
2023-11-20T13:11:04.306Z,3.90
2023-11-20T13:13:32.984Z,3.90
2023-11-20T13:16:01.699Z,3.88
2023-11-20T13:18:30.918Z,3.80
2023-11-20T13:20:59.388Z,3.80
2023-11-20T13:23:31.287Z,3.80
2023-11-20T13:26:05.924Z,3.80
2023-11-20T13:28:35.595Z,3.80
2023-11-20T13:31:10.891Z,3.78
2023-11-20T13:33:43.655Z,3.70
2023-11-20T13:36:12.558Z,3.70
2023-11-20T13:38:40.591Z,3.66
2023-11-20T13:41:12.077Z,3.60
2023-11-20T13:43:41.575Z,3.60
2023-11-20T13:46:09.700Z,3.60
2023-11-20T13:48:40.029Z,3.60
2023-11-20T13:51:07.866Z,3.60
2023-11-20T13:53:35.849Z,3.60
2023-11-20T13:56:04.961Z,3.50
2023-11-20T13:58:32.906Z,3.50
2023-11-20T14:01:01.749Z,3.50
2023-11-20T14:03:31.480Z,3.48
2023-11-20T14:06:01.504Z,3.50
2023-11-20T14:08:31.996Z,3.50
2023-11-20T14:11:02.777Z,3.50
2023-11-20T14:13:34.651Z,3.50
2023-11-20T14:16:02.543Z,3.50
2023-11-20T14:18:31.671Z,3.50
2023-11-20T14:20:59.736Z,3.50
2023-11-20T14:23:28.064Z,3.50
2023-11-20T14:26:14.210Z,3.50
2023-11-20T14:28:45.504Z,3.50
2023-11-20T14:31:14.195Z,3.50
2023-11-20T14:33:42.866Z,3.50
2023-11-20T14:36:12.048Z,3.50
2023-11-20T14:38:40.883Z,3.50
2023-11-20T14:41:08.810Z,3.50
2023-11-20T14:43:37.564Z,3.48
2023-11-20T14:46:07.103Z,3.44
2023-11-20T14:48:36.483Z,3.40
2023-11-20T14:51:05.462Z,3.40
2023-11-20T14:53:33.836Z,3.40
2023-11-20T14:56:01.905Z,3.42
2023-11-20T14:58:29.987Z,3.40
2023-11-20T15:00:58.148Z,3.30
2023-11-20T15:03:26.139Z,3.30
2023-11-20T15:05:56.707Z,3.30
2023-11-20T15:08:24.469Z,3.26
2023-11-20T15:10:53.850Z,3.20
2023-11-20T15:13:25.246Z,3.20
2023-11-20T15:15:53.066Z,3.20
2023-11-20T15:18:21.896Z,3.20
2023-11-20T15:20:49.771Z,3.20
2023-11-20T15:23:17.804Z,3.18
2023-11-20T15:25:45.602Z,3.20
2023-11-20T15:28:13.394Z,3.20
2023-11-20T15:30:41.836Z,3.20
2023-11-20T15:33:09.632Z,3.14
2023-11-20T15:35:38.632Z,3.10
2023-11-20T15:38:06.411Z,3.10
2023-11-20T15:40:34.207Z,3.10
2023-11-20T15:43:02.482Z,3.10
2023-11-20T15:45:31.319Z,3.06
2023-11-20T15:47:59.469Z,3.00
2023-11-20T15:50:27.159Z,3.00
2023-11-20T15:52:54.952Z,2.96
2023-11-20T15:55:22.709Z,2.90
2023-11-20T15:57:54.409Z,2.90
2023-11-20T16:00:23.458Z,2.90
2023-11-20T16:02:51.325Z,2.90
2023-11-20T16:05:19.129Z,2.90
2023-11-20T16:07:46.936Z,2.90
2023-11-20T16:10:16.993Z,2.90
2023-11-20T16:12:45.278Z,2.90
2023-11-20T16:15:13.224Z,2.90
2023-11-20T16:17:43.564Z,2.80
2023-11-20T16:20:13.324Z,2.82
2023-11-20T16:22:41.813Z,2.82
2023-11-20T16:25:10.632Z,2.80
2023-11-20T16:27:39.347Z,2.88
2023-11-20T16:30:07.808Z,2.80
2023-11-20T16:32:36.640Z,2.80
2023-11-20T16:35:04.797Z,2.80
2023-11-20T16:37:32.962Z,2.80
2023-11-20T16:40:00.934Z,2.80
2023-11-20T16:42:29.981Z,2.80
2023-11-20T16:44:57.837Z,2.80
2023-11-20T16:47:25.803Z,2.84
2023-11-20T16:49:53.607Z,2.80
2023-11-20T16:52:21.438Z,2.72
2023-11-20T16:54:49.632Z,2.72
2023-11-20T16:57:17.403Z,2.70
2023-11-20T16:59:48.475Z,2.74
2023-11-20T17:02:19.124Z,2.80
2023-11-20T17:04:47.237Z,2.80
2023-11-20T17:07:14.995Z,2.80
2023-11-20T17:09:42.994Z,2.80
2023-11-20T17:12:11.116Z,2.80
2023-11-20T17:14:40.227Z,2.70
2023-11-20T17:17:11.388Z,2.70
2023-11-20T17:19:39.266Z,2.70
2023-11-20T17:22:08.281Z,2.60
2023-11-20T17:24:37.278Z,2.60
2023-11-20T17:27:05.340Z,2.60
2023-11-20T17:29:33.057Z,2.60
2023-11-20T17:32:01.302Z,2.52
2023-11-20T17:34:29.232Z,2.50
2023-11-20T17:36:57.037Z,2.50
2023-11-20T17:39:24.900Z,2.50
2023-11-20T17:41:53.144Z,2.50
2023-11-20T17:44:21.397Z,2.40
2023-11-20T17:46:49.310Z,2.40
2023-11-20T17:49:17.290Z,2.40
2023-11-20T17:51:48.075Z,2.34
2023-11-20T17:54:16.221Z,2.38
2023-11-20T17:56:48.139Z,2.40
2023-11-20T17:59:18.597Z,2.38
2023-11-20T18:01:46.947Z,2.40
2023-11-20T18:04:15.022Z,2.40
2023-11-20T18:06:43.295Z,2.30
2023-11-20T18:09:11.160Z,2.30
2023-11-20T18:11:38.972Z,2.30
2023-11-20T18:14:06.789Z,2.30
2023-11-20T18:16:34.606Z,2.20
2023-11-20T18:19:02.379Z,2.20
2023-11-20T18:21:30.319Z,2.20
2023-11-20T18:23:58.054Z,2.10
2023-11-20T18:26:25.795Z,2.10
2023-11-20T18:28:54.324Z,2.10
2023-11-20T18:31:22.320Z,2.10
2023-11-20T18:33:50.200Z,2.08
2023-11-20T18:36:18.047Z,2.10
2023-11-20T18:38:45.903Z,2.02
2023-11-20T18:41:13.613Z,2.00
2023-11-20T18:43:43.132Z,2.00
2023-11-20T18:46:11.036Z,2.00
2023-11-20T18:48:39.089Z,1.90
2023-11-20T18:51:06.902Z,1.92
2023-11-20T18:53:34.691Z,1.90
2023-11-20T18:56:02.703Z,1.90
2023-11-20T18:58:30.608Z,1.94
2023-11-20T19:00:58.544Z,2.00
2023-11-20T19:03:26.819Z,2.00
2023-11-20T19:05:54.823Z,1.90
2023-11-20T19:08:22.529Z,1.90
2023-11-20T19:10:50.395Z,1.90
2023-11-20T19:13:18.462Z,1.90
2023-11-20T19:15:47.040Z,1.88
2023-11-20T19:18:14.768Z,1.88
2023-11-20T19:20:42.890Z,1.84
2023-11-20T19:23:10.627Z,1.82
2023-11-20T19:25:39.372Z,1.84
2023-11-20T19:28:07.203Z,1.80
2023-11-20T19:30:36.789Z,1.80
2023-11-20T19:33:10.649Z,1.80
2023-11-20T19:35:38.754Z,1.80
2023-11-20T19:38:09.560Z,1.80
2023-11-20T19:40:37.478Z,1.80
2023-11-20T19:43:05.476Z,1.80
2023-11-20T19:45:33.276Z,1.80
2023-11-20T19:48:01.126Z,1.80
2023-11-20T19:50:28.966Z,1.80
2023-11-20T19:52:57.142Z,1.80
2023-11-20T19:55:24.928Z,1.80
2023-11-20T19:57:53.663Z,1.80
2023-11-20T20:00:21.464Z,1.90
2023-11-20T20:02:49.375Z,1.90
2023-11-20T20:05:19.180Z,1.88
2023-11-20T20:07:48.152Z,1.80
2023-11-20T20:10:16.879Z,1.80
2023-11-20T20:12:44.878Z,1.80
2023-11-20T20:15:14.517Z,1.80
2023-11-20T20:17:43.768Z,1.80
2023-11-20T20:20:12.795Z,1.84
2023-11-20T20:22:40.564Z,1.90
2023-11-20T20:25:09.028Z,1.90
2023-11-20T20:27:37.713Z,1.90
2023-11-20T20:30:06.301Z,1.90
2023-11-20T20:32:34.097Z,1.92
2023-11-20T20:35:01.929Z,1.92
2023-11-20T20:37:31.255Z,1.90
2023-11-20T20:39:59.901Z,1.80
2023-11-20T20:42:27.948Z,1.80
2023-11-20T20:44:55.774Z,1.70
2023-11-20T20:47:23.780Z,1.70
2023-11-20T20:49:51.721Z,1.74
2023-11-20T20:52:19.499Z,1.80
2023-11-20T20:54:47.588Z,1.76
2023-11-20T20:57:15.391Z,1.80
2023-11-20T20:59:43.227Z,1.80
2023-11-20T21:02:11.728Z,1.80
2023-11-20T21:04:39.571Z,1.80
2023-11-20T21:07:08.313Z,1.80
2023-11-20T21:09:36.176Z,1.80
2023-11-20T21:12:04.113Z,1.80
2023-11-20T21:14:31.979Z,1.80
2023-11-20T21:16:59.862Z,1.70
2023-11-20T21:19:28.704Z,1.70
2023-11-20T21:21:56.523Z,1.70
2023-11-20T21:24:24.335Z,1.70
2023-11-20T21:26:52.118Z,1.60
2023-11-20T21:29:19.925Z,1.60
2023-11-20T21:31:49.723Z,1.60
2023-11-20T21:34:17.596Z,1.60
2023-11-20T21:36:45.727Z,1.60
2023-11-20T21:39:19.345Z,1.60
2023-11-20T21:41:47.866Z,1.60
2023-11-20T21:44:17.463Z,1.60
2023-11-20T21:46:45.588Z,1.60
2023-11-20T21:49:13.527Z,1.60
2023-11-20T21:51:41.271Z,1.60
2023-11-20T21:54:09.273Z,1.60
2023-11-20T21:56:41.133Z,1.60
2023-11-20T21:59:09.150Z,1.58
2023-11-20T22:01:36.951Z,1.50
2023-11-20T22:04:05.368Z,1.56
2023-11-20T22:06:33.221Z,1.56
2023-11-20T22:09:01.045Z,1.50
2023-11-20T22:11:28.928Z,1.56
2023-11-20T22:13:56.700Z,1.60
2023-11-20T22:16:24.548Z,1.60
2023-11-20T22:18:53.242Z,1.60
2023-11-20T22:21:21.195Z,1.60
2023-11-20T22:23:48.994Z,1.60
2023-11-20T22:26:16.721Z,1.60
2023-11-20T22:28:44.983Z,1.60
2023-11-20T22:31:14.053Z,1.60
2023-11-20T22:33:41.938Z,1.52
2023-11-20T22:36:11.084Z,1.50
2023-11-20T22:38:38.890Z,1.56
2023-11-20T22:41:07.791Z,1.50
2023-11-20T22:43:35.853Z,1.52
2023-11-20T22:46:04.231Z,1.50
2023-11-20T22:48:32.041Z,1.60
2023-11-20T22:50:59.830Z,1.60
2023-11-20T22:53:27.572Z,1.52
2023-11-20T22:55:55.822Z,1.60
2023-11-20T22:58:24.072Z,1.60
2023-11-20T23:00:51.871Z,1.60
2023-11-20T23:03:20.244Z,1.64
2023-11-20T23:05:48.673Z,1.60
2023-11-20T23:08:16.498Z,1.60
2023-11-20T23:10:45.340Z,1.60
2023-11-20T23:13:13.812Z,1.60
2023-11-20T23:15:41.835Z,1.60
2023-11-20T23:18:09.757Z,1.64
2023-11-20T23:20:38.173Z,1.60
2023-11-20T23:23:05.934Z,1.60
2023-11-20T23:25:33.678Z,1.50
2023-11-20T23:28:02.037Z,1.40
2023-11-20T23:30:31.381Z,1.34
2023-11-20T23:33:00.542Z,1.30
2023-11-20T23:35:28.508Z,1.30
2023-11-20T23:37:57.347Z,1.30
2023-11-20T23:40:25.548Z,1.22
2023-11-20T23:42:53.389Z,1.20
2023-11-20T23:45:21.079Z,1.20
2023-11-20T23:47:48.790Z,1.16
2023-11-20T23:50:17.703Z,1.10
2023-11-20T23:52:46.277Z,1.10
2023-11-20T23:55:14.535Z,1.10
2023-11-20T23:57:42.322Z,1.10
